Michael Poindexter — WDD4332 — position and weather

sailwx.info

Track history (hours):
 
Tides and Currents Weather Stations Pressure Air Temp Water Temp Dewpoint Dewpoint Depression Visibility Wind Speed Wind Dir Waves Ship Positions

Michael Poindexter

Owner: American Commercial Lines LLC, Jeffersonville, IN. More information available from US FCC via Universal Licensing System and Coast Guard Vessel Documentation Center.

Last reported at 2018-May-06 09:33 UTC. Time now 2018-Jun-24 12:59 UTC.
Position N 39°23' W 090°55'.
Warning: this ship's position is 49 days out of date.

Length 48 m; draft 3 m.

Type: Towing. MMSI: 367143380.

Date/timePositionNaut miles runAvg speedWind from/ knotsBaromVisibWave heightAir tempDewpointWater temp
2018-May-06 09:33N 39°23' W 090°55'0 3.4
2018-May-06 09:30N 39°22' W 090°54'0 0.2
2018-May-06 09:01N 39°22' W 090°54'0 0.2
2018-May-06 08:27N 39°22' W 090°54'0 1.0
2018-May-06 08:01N 39°22' W 090°54'2 3.6
2018-May-06 07:28N 39°21' W 090°52'2 3.9
2018-May-06 07:00N 39°20' W 090°50'11 2.8
2018-May-06 02:52N 39°10' W 090°43'1 3.6
2018-May-06 02:31N 39°09' W 090°42'2 3.8
2018-May-06 02:00N 39°07' W 090°41'3 3.4
2018-May-06 01:07N 39°04' W 090°42'0 3.5
2018-May-06 01:00N 39°04' W 090°43'0 0.5
2018-May-06 00:30N 39°04' W 090°43'2 3.6
2018-May-06 00:01N 39°02' W 090°42'2 3.4
2018-May-05 23:30N 39°00' W 090°41'0 0.2
2018-May-05 23:00N 39°00' W 090°41'0 0.1
2018-May-05 22:30N 39°00' W 090°41'0 0.5
2018-May-05 22:01N 38°60' W 090°41'2 3.9
2018-May-05 21:29N 38°58' W 090°40'1 2.1
2018-May-05 21:01N 38°57' W 090°40'2 4.3
2018-May-05 20:30N 38°55' W 090°39'2 4.1
2018-May-05 20:00N 38°53' W 090°38'2 3.9
2018-May-05 19:30N 38°52' W 090°36'2 4.3
2018-May-05 19:00N 38°52' W 090°33'2 4.0
2018-May-05 18:30N 38°54' W 090°31'2 4.2
2018-May-05 18:00N 38°56' W 090°30'2 3.9
2018-May-05 17:30N 38°57' W 090°28'2 3.6
2018-May-05 17:00N 38°58' W 090°26'2 3.6
2018-May-05 16:31N 38°58' W 090°24'2 3.9
2018-May-05 16:01N 38°57' W 090°22'2 4.2
2018-May-05 15:30N 38°56' W 090°19'2 4.0
2018-May-05 15:01N 38°55' W 090°17'2 4.0
2018-May-05 14:30N 38°55' W 090°14'2 3.6
2018-May-05 14:00N 38°54' W 090°12'2 3.9
2018-May-05 13:31N 38°53' W 090°10'1 2.6
2018-May-05 13:00N 38°52' W 090°09'1 2.2
2018-May-05 12:30N 38°52' W 090°08'0 0.4
2018-May-05 12:00N 38°51' W 090°07'0 0.0
2018-May-05 11:30N 38°51' W 090°07'0 0.0
2018-May-05 11:00N 38°51' W 090°07'0 0.0
2018-May-05 10:31N 38°51' W 090°07'0 0.0
2018-May-05 10:00N 38°51' W 090°07'0 0.0
2018-May-05 09:30N 38°51' W 090°07'0 0.0
2018-May-05 09:01N 38°51' W 090°07'0 0.0
2018-May-05 08:30N 38°51' W 090°07'0 0.0
2018-May-05 08:01N 38°51' W 090°07'0 0.0
2018-May-05 07:30N 38°51' W 090°07'0 0.0
2018-May-05 07:00N 38°51' W 090°07'0 0.0
2018-May-05 06:30N 38°51' W 090°07'0 0.0
2018-May-05 06:00N 38°51' W 090°07'0 0.0
2018-May-05 05:31N 38°51' W 090°07'0 0.0
2018-May-05 05:01N 38°51' W 090°07'0 0.0
2018-May-05 04:30N 38°51' W 090°07'1 2.0
2018-May-05 04:01N 38°51' W 090°07'3 5.2
2018-May-05 03:30N 38°48' W 090°07'4 4.5
2018-May-05 02:43N 38°45' W 090°09'0 0.1
2018-May-05 02:29N 38°45' W 090°09'0 0.0
2018-May-05 01:57N 38°45' W 090°09'0 0.6
2018-May-05 01:26N 38°45' W 090°09'0 0.1
2018-May-05 00:58N 38°45' W 090°09'3 2.1
2018-May-04 23:26N 38°42' W 090°11'1 1.6
2018-May-04 23:00N 38°41' W 090°11'5 2.5
2018-May-04 21:08N 38°36' W 090°11'0 0.1
2018-May-04 19:50N 38°36' W 090°11'1 2.4
2018-May-04 19:27N 38°36' W 090°12'1 0.2
2018-May-04 14:47N 38°36' W 090°11'3 8.3
2018-May-04 14:28N 38°39' W 090°11'3 6.6
2018-May-04 14:01N 38°42' W 090°11'0 0.8
2018-May-04 13:28N 38°42' W 090°11'2 1.8
2018-May-04 12:33N 38°44' W 090°10'0 2.1
2018-May-04 12:27N 38°44' W 090°10'1 1.2
2018-May-04 12:01N 38°44' W 090°09'1 1.1
2018-May-04 11:30N 38°45' W 090°09'1 1.6
2018-May-04 10:59N 38°45' W 090°09'2 3.3
2018-May-04 10:30N 38°47' W 090°08'3 5.7
2018-May-04 10:01N 38°50' W 090°07'3 6.0
2018-May-04 09:30N 38°52' W 090°09'0 0.4
2018-May-04 09:00N 38°52' W 090°09'1 1.7
2018-May-04 08:31N 38°53' W 090°10'3 5.3
2018-May-04 08:00N 38°54' W 090°13'3 6.2
2018-May-04 07:30N 38°55' W 090°17'3 5.5
2018-May-04 07:01N 38°56' W 090°20'3 5.5
2018-May-04 06:30N 38°57' W 090°23'3 5.5
2018-May-04 06:00N 38°57' W 090°27'3 5.7
2018-May-04 05:30N 38°56' W 090°30'3 5.9
2018-May-04 05:01N 38°53' W 090°32'3 5.8
2018-May-04 04:30N 38°52' W 090°35'3 5.4
2018-May-04 04:01N 38°54' W 090°38'3 6.1
2018-May-04 03:31N 38°56' W 090°40'4 6.9
2018-May-04 03:00N 38°60' W 090°41'1 1.4
2018-May-04 02:30N 39°00' W 090°41'0 0.2
2018-May-04 02:00N 39°00' W 090°41'0 0.2
2018-May-04 01:29N 39°00' W 090°41'0 0.0
2018-May-04 01:00N 39°00' W 090°41'0 0.1
2018-May-04 00:30N 39°00' W 090°41'1 1.4
2018-May-04 00:01N 39°01' W 090°42'2 4.3
2018-May-03 23:31N 39°03' W 090°43'0 0.1
2018-May-03 23:00N 39°03' W 090°43'0 0.0
2018-May-03 22:30N 39°03' W 090°43'0 0.0
2018-May-03 22:00N 39°03' W 090°43'0 0.0
2018-May-03 21:31N 39°03' W 090°43'0 0.0
2018-May-03 21:00N 39°03' W 090°43'0 0.0
2018-May-03 20:31N 39°03' W 090°43'1 1.2
2018-May-03 20:00N 39°03' W 090°43'4 5.3
2018-May-03 19:15N 39°07' W 090°42'2 6.2
2018-May-03 18:58N 39°09' W 090°43'  
Track history (hours):
 
Tides and Currents Weather Stations Pressure Air Temp Water Temp Dewpoint Dewpoint Depression Visibility Wind Speed Wind Dir Waves Ship Positions

Michael Poindexter

Owner: American Commercial Lines LLC, Jeffersonville, IN. More information available from US FCC via Universal Licensing System and Coast Guard Vessel Documentation Center.

Last reported at 2018-May-06 09:33 UTC. Time now 2018-Jun-24 12:59 UTC.
Position N 39°23' W 090°55'.
Warning: this ship's position is 49 days out of date.

Length 48 m; draft 3 m.

Type: Towing. MMSI: 367143380.

Date/timePositionNaut miles runAvg speedWind from/ knotsBaromVisibWave heightAir tempDewpointWater temp
2018-May-06 09:33N 39°23' W 090°55'0 3.4
2018-May-06 09:30N 39°22' W 090°54'0 0.2
2018-May-06 09:01N 39°22' W 090°54'0 0.2
2018-May-06 08:27N 39°22' W 090°54'0 1.0
2018-May-06 08:01N 39°22' W 090°54'2 3.6
2018-May-06 07:28N 39°21' W 090°52'2 3.9
2018-May-06 07:00N 39°20' W 090°50'11 2.8
2018-May-06 02:52N 39°10' W 090°43'1 3.6
2018-May-06 02:31N 39°09' W 090°42'2 3.8
2018-May-06 02:00N 39°07' W 090°41'3 3.4
2018-May-06 01:07N 39°04' W 090°42'0 3.5
2018-May-06 01:00N 39°04' W 090°43'0 0.5
2018-May-06 00:30N 39°04' W 090°43'2 3.6
2018-May-06 00:01N 39°02' W 090°42'2 3.4
2018-May-05 23:30N 39°00' W 090°41'0 0.2
2018-May-05 23:00N 39°00' W 090°41'0 0.1
2018-May-05 22:30N 39°00' W 090°41'0 0.5
2018-May-05 22:01N 38°60' W 090°41'2 3.9
2018-May-05 21:29N 38°58' W 090°40'1 2.1
2018-May-05 21:01N 38°57' W 090°40'2 4.3
2018-May-05 20:30N 38°55' W 090°39'2 4.1
2018-May-05 20:00N 38°53' W 090°38'2 3.9
2018-May-05 19:30N 38°52' W 090°36'2 4.3
2018-May-05 19:00N 38°52' W 090°33'2 4.0
2018-May-05 18:30N 38°54' W 090°31'2 4.2
2018-May-05 18:00N 38°56' W 090°30'2 3.9
2018-May-05 17:30N 38°57' W 090°28'2 3.6
2018-May-05 17:00N 38°58' W 090°26'2 3.6
2018-May-05 16:31N 38°58' W 090°24'2 3.9
2018-May-05 16:01N 38°57' W 090°22'2 4.2
2018-May-05 15:30N 38°56' W 090°19'2 4.0
2018-May-05 15:01N 38°55' W 090°17'2 4.0
2018-May-05 14:30N 38°55' W 090°14'2 3.6
2018-May-05 14:00N 38°54' W 090°12'2 3.9
2018-May-05 13:31N 38°53' W 090°10'1 2.6
2018-May-05 13:00N 38°52' W 090°09'1 2.2
2018-May-05 12:30N 38°52' W 090°08'0 0.4
2018-May-05 12:00N 38°51' W 090°07'0 0.0
2018-May-05 11:30N 38°51' W 090°07'0 0.0
2018-May-05 11:00N 38°51' W 090°07'0 0.0
2018-May-05 10:31N 38°51' W 090°07'0 0.0
2018-May-05 10:00N 38°51' W 090°07'0 0.0
2018-May-05 09:30N 38°51' W 090°07'0 0.0
2018-May-05 09:01N 38°51' W 090°07'0 0.0
2018-May-05 08:30N 38°51' W 090°07'0 0.0
2018-May-05 08:01N 38°51' W 090°07'0 0.0
2018-May-05 07:30N 38°51' W 090°07'0 0.0
2018-May-05 07:00N 38°51' W 090°07'0 0.0
2018-May-05 06:30N 38°51' W 090°07'0 0.0
2018-May-05 06:00N 38°51' W 090°07'0 0.0
2018-May-05 05:31N 38°51' W 090°07'0 0.0
2018-May-05 05:01N 38°51' W 090°07'0 0.0
2018-May-05 04:30N 38°51' W 090°07'1 2.0
2018-May-05 04:01N 38°51' W 090°07'3 5.2
2018-May-05 03:30N 38°48' W 090°07'4 4.5
2018-May-05 02:43N 38°45' W 090°09'0 0.1
2018-May-05 02:29N 38°45' W 090°09'0 0.0
2018-May-05 01:57N 38°45' W 090°09'0 0.6
2018-May-05 01:26N 38°45' W 090°09'0 0.1
2018-May-05 00:58N 38°45' W 090°09'3 2.1
2018-May-04 23:26N 38°42' W 090°11'1 1.6
2018-May-04 23:00N 38°41' W 090°11'5 2.5
2018-May-04 21:08N 38°36' W 090°11'0 0.1
2018-May-04 19:50N 38°36' W 090°11'1 2.4
2018-May-04 19:27N 38°36' W 090°12'1 0.2
2018-May-04 14:47N 38°36' W 090°11'3 8.3
2018-May-04 14:28N 38°39' W 090°11'3 6.6
2018-May-04 14:01N 38°42' W 090°11'0 0.8
2018-May-04 13:28N 38°42' W 090°11'2 1.8
2018-May-04 12:33N 38°44' W 090°10'0 2.1
2018-May-04 12:27N 38°44' W 090°10'1 1.2
2018-May-04 12:01N 38°44' W 090°09'1 1.1
2018-May-04 11:30N 38°45' W 090°09'1 1.6
2018-May-04 10:59N 38°45' W 090°09'2 3.3
2018-May-04 10:30N 38°47' W 090°08'3 5.7
2018-May-04 10:01N 38°50' W 090°07'3 6.0
2018-May-04 09:30N 38°52' W 090°09'0 0.4
2018-May-04 09:00N 38°52' W 090°09'1 1.7
2018-May-04 08:31N 38°53' W 090°10'3 5.3
2018-May-04 08:00N 38°54' W 090°13'3 6.2
2018-May-04 07:30N 38°55' W 090°17'3 5.5
2018-May-04 07:01N 38°56' W 090°20'3 5.5
2018-May-04 06:30N 38°57' W 090°23'3 5.5
2018-May-04 06:00N 38°57' W 090°27'3 5.7
2018-May-04 05:30N 38°56' W 090°30'3 5.9
2018-May-04 05:01N 38°53' W 090°32'3 5.8
2018-May-04 04:30N 38°52' W 090°35'3 5.4
2018-May-04 04:01N 38°54' W 090°38'3 6.1
2018-May-04 03:31N 38°56' W 090°40'4 6.9
2018-May-04 03:00N 38°60' W 090°41'1 1.4
2018-May-04 02:30N 39°00' W 090°41'0 0.2
2018-May-04 02:00N 39°00' W 090°41'0 0.2
2018-May-04 01:29N 39°00' W 090°41'0 0.0
2018-May-04 01:00N 39°00' W 090°41'0 0.1
2018-May-04 00:30N 39°00' W 090°41'1 1.4
2018-May-04 00:01N 39°01' W 090°42'2 4.3
2018-May-03 23:31N 39°03' W 090°43'0 0.1
2018-May-03 23:00N 39°03' W 090°43'0 0.0
2018-May-03 22:30N 39°03' W 090°43'0 0.0
2018-May-03 22:00N 39°03' W 090°43'0 0.0
2018-May-03 21:31N 39°03' W 090°43'0 0.0
2018-May-03 21:00N 39°03' W 090°43'0 0.0
2018-May-03 20:31N 39°03' W 090°43'1 1.2
2018-May-03 20:00N 39°03' W 090°43'4 5.3
2018-May-03 19:15N 39°07' W 090°42'2 6.2
2018-May-03 18:58N 39°09' W 090°43'  

Dump ship's entire track history